Timeline UpdatesTrip UpdatesNews PostsPvt PostsTravel TipsAdmin PostsConv PostsFollowed PostsChat RequestsBlog PostsPNR Posts

Disclaimer
Search
 
 
Thu Jul 24, 2014 20:50:46 ISTHomeTrainsΣChainsAtlasPNRForumGalleryNewsFAQTripsMembersLoginFeedback
No Recent News for this Train
Other Trains in the News **new
Latest...
Diverted via Moradabad-Ghaziabad-Delhi Jn.-Panipat-Kurukshetra on 15/6/14 #1134752.
Sat Jun 14, 2014 (02:17PM)
⇐ Return Journey: Train# 15210

15209/Jan Seva Express (UnReserved)

Dec 27 2013 (6:25PM)
Change Departure Station:
Change Arrival Station:
Post a Train Travel TipPost a Train Travel Tip **new
Post a Comment/Question/Picture/VideoPost a Comment/Question/Picture/Video
Inaugural Run
Sat Dec 12, 2009
Pantry/Catering
✕ NO Pantry Car
✕ NO Catering
RSA - Rake Sharing
RSA with 15275/76...shc bju express
Rake/Coach Composition
LOCO-SLR-GEN-GEN-GEN-GEN-GEN-GEN-GEN-GEN-GEN-GEN-GEN-GEN-GEN-GEN-GEN-GEN-GEN-GEN-GEN-GEN-SLR
Loco
SHC-MB: GD WDM-3A MB-ASR: GZB WAP5/WAP7
News    PNR    Forum    Time-Table    Availability    Fare Chart    Map    Arr/Dep History    Trips    Gallery    ΣChains    X/O    Timeline    
Travel Time: 28h 47m    38 halts    Distance: 1322 km    Avg Speed: 45 km/hr
Type: Mail/Express
Zone: ECR/East Central
Departs @ 08:45
Platform# 1
SMTWTFS
Saharsa Junction/SHC 
Arrives @ 13:32 +1 night
Platform# 1
SMTWTFS
Sirhind Junction/SIR 

38 halts. 223 intermediate Stations between Saharsa Junction and Sirhind Junction

Show ALL intermediate Stations  Show Old Time-Table

#CodeStation NameX/OArrivesAvgDepartsAvgHaltPFDay#KmSpeedElevZoneAddress
1SHC»Saharsa Junction (3)»  -08:45-110.07346mECRSaharsa, Bihar
2SBVSimri Bakhtiyarpur (1)  08:59-09:01-2m1117.14942mECRBakhtiarpur, Bihar
3KFAKoparia (1)  09:09-09:11-2m1123.62242mECRBihar, Bihar
4MNEMansi Junction (3)X  10:03-10:05-2m3142.55343mECRMansi, Bihar
5KGGKhagaria Junction (3)X  10:15-10:17-2m1151.35843mECRKhagaria, Bihar
6LKNLakhminia  10:40-10:42-2m--173.48245mECRBegusarai, Bihar
7BGSBegu Sarai (3)X  10:55-10:57-2m1191.229 ECRBegusarai, Bihar
8BJUBarauni Junction (9)X  11:25-11:35-10m--1104.65249mECRBegusarai, Bihar
9BCABachwara Junction  11:54-11:56-2m--1121.05449mECRBegusarai, Bihar
10MOGMohiuddinnagar (1)  12:19-12:21-2m--1141.64154mECRSamastipur, Bihar
11SPPShahpur Patoree (2)  12:40-12:42-2m--1154.56850mECRSamastipur, Bihar
12MNOMehnar RoadX  12:49-12:51-2m--1162.44054mECRMehnar Road, Bihar
13DESDesari (2)O  13:06-13:08-2m--1172.54750mECRVaishali, Bihar
14AYRNAkshaywat Rai Nagar  13:20-13:22-2m--1181.81752mECRVaishali, Bihar
15HJPHajipur Junction (3)X  14:00-14:05-5m--1192.33355mECR06224-272230, Bihar
16SEESonpur Junction (4)X  14:15-14:20-5m31197.84656mECRSaran, Bihar
17DGADighwara (2)X  14:50-14:52-2m--1221.03260mECR06158-281240, Bihar
18CPRChhapra Junction (6)  15:50-16:00-10m--1251.98058mNERDistt: Saran, Bihar
19EKMAEkma (3)X  16:21-16:23-2m--1279.85864mNERSaran, Bihar
20DDADuraundha Junction (3)  16:39-16:41-2m--1295.35664mNERDistt: Siwan, Bihar
21SVSiwan Junction (4)  17:00-17:05-5m--1313.18570mNERSiwan, Bihar
22MWMairwa (2)X17:20-17:22-2m--1334.44373mNERMairwa, Bihar
23BTTBhatni Junction (5)  18:00-18:05-5m--1361.83573mNERDeoria, Uttar Pradesh
24DEOSDeoria Sadar (3)X  18:41-18:46-5m--1382.64379mNERDeoria- 274001, Uttar Pradesh
25GKPGorakhpur Junction (10)X  19:55-20:10-15m--1431.76984mNERGorakhpur 273001, Uttar Pradesh
26BSTBasti (4)  21:05-21:07-2m11495.16090mNERBasti 272001, Uttar Pradesh
27GDGonda Junction (3)X  22:35-22:45-10m11583.662110mNERGonda 271001, Uttar Pradesh
28BUWBurhwal Junction (3)  23:45-23:50-5m31645.843119mNERBarabanki, Uttar Pradesh
29SCCSitapur Cantt. (2)X  02:05-02:15-10m--2743.345141mNRSitapur, Uttar Pradesh
30MINJMaikalGanj03:11-03:12-1m--2784.958149mNRNational Highway 24, Uttar Pradesh
31BEBareilly Junction (4)X  05:15-05:25-10m12903.974174mNRBareilly, Uttar Pradesh
32RMURampur Junction (3)X  06:16-06:18-2m--2966.939190mNRRampur, Uttar Pradesh
33MBMoradabad Junction (7)X07:00-07:30-30m32994.272201mNRMoradabad, Uttar Pradesh
34NBDNajibabad Junction (3)  08:52-08:55-3m221093.144269mNRNajibabad, Uttar Pradesh
35LRJLaksar Junction (4)XO  09:52-09:54-2m--21135.044238mNRLaksar, Uttarakhand
36SRESaharanpur Junction (6)  11:05-11:10-5m521187.567276mNRSaharanpur, Uttar Pradesh
37JUDYamunanagar-Jagadhri (3)X  11:37-11:38-1m321217.759275mNRYamunanagar, Haryana
38UMBAmbala Cantt. Junction (7)X  12:30-12:40-10m221268.767278mNRAmbala 133001, Haryana
39RPJRajpura Junction (3)X  13:05-13:07-2m121296.860272mNRNH-1, Punjab
40SIR•Sirhind Junction (3)•O  13:32-13:34-2m121321.636271mNRSirhind, Punjab
41DDLDhandari Kalan (3)X  15:04-15:06-2m121374.850254mNRDhandari Kalan, Punjab
42LDHLudhiana Junction (7)X  15:15-15:25-10m321382.334246mNRLudhiana 141001, Punjab
43PHRPhillaur Junction (3)  15:48-15:50-2m221395.475246mNRPhillaur, Punjab
44PGWPhagwara Junction (3)  16:08-16:10-2m221418.063245mNRPhagwara, Punjab
45JUCJalandhar City Junction (5)  16:30-16:35-5m121439.149239mNRJalandhar 144001, Punjab
46BEASBeas Junction (2)X  17:19-17:21-2m121475.248238mNRBeas, Punjab
47ASRAmritsar Junction (5)  18:15--521518.2-233mNRAmritsar 143002, Punjab
Scroll to Top
Scroll to Bottom